CYYZ/YYZ METAR and TAF weather

Enter ICAO airport designator
Station Type Date Time Source
CYYZ METAR 2021/03/09 10:00 UTC NOAA

CYYZ 091000Z 27007KT 15SM FEW240 M02/M03 A3028 RMK CI1 SLP263


Station Type Date Time Source
CYYZ Decoded METAR 2021/03/09 10:00 UTC NOAA

Toronto Pearson Int'L. Ont., Canada (CYYZ) 43-40N 079-38W 173M
Mar 09, 2021 - 05:00 AM EST / 2021.03.09 1000 UTC
Wind: from the W (270 degrees) at 8 MPH (7 KT):0
Visibility: 15 mile(s):0
Sky conditions: mostly clear
Temperature: 28 F (-2 C)
Windchill: 19 F (-7 C):1
Dew Point: 26 F (-3 C)
Relative Humidity: 92%
Pressure (altimeter): 30.28 in. Hg (1025 hPa)
ob: CYYZ 091000Z 27007KT 15SM FEW240 M02/M03 A3028 RMK CI1 SLP263
cycle: 10

Station Type Date Time Source
CYYZ TAF 2021/03/09 09:39 UTC NOAA

TAF CYYZ 090838Z 0909/1012 28006KT P6SM SKC
FM091000 30006KT P6SM BKN015
TEMPO 0910/0916 SCT015 PROB30 0910/0913 BKN009 OVC012
FM091600 VRB03KT P6SM FEW020
FM092100 15009KT P6SM SCT240
FM100300 08005KT P6SM SKC
FM101000 06005KT WS010/21025KT P6SM FEW006
RMK NXT FCST BY 091200Z

Example: see airport list